createdAt,value
2019-04-06T00:08:01.419Z,69.40
2019-04-06T00:18:03.470Z,70.30
2019-04-06T00:28:05.674Z,69.30
2019-04-06T00:38:07.781Z,69.30
2019-04-06T00:48:09.799Z,69.20
2019-04-06T00:58:11.748Z,69.40
2019-04-06T01:08:13.890Z,69.60
2019-04-06T01:18:17.374Z,69.50
2019-04-06T01:28:19.669Z,69.60
2019-04-06T01:38:21.685Z,69.40
2019-04-06T01:48:23.853Z,70.00
2019-04-06T01:58:27.337Z,69.50
2019-04-06T02:08:29.498Z,69.30
2019-04-06T02:18:31.514Z,69.40
2019-04-06T02:28:33.589Z,69.20
2019-04-06T02:38:35.605Z,69.10
2019-04-06T02:48:37.587Z,69.10
2019-04-06T02:58:39.560Z,69.20
2019-04-06T03:08:41.561Z,69.20
2019-04-06T03:18:43.582Z,69.20
2019-04-06T03:28:45.790Z,69.20
2019-04-06T03:38:47.841Z,69.40
2019-04-06T03:48:51.021Z,69.50
2019-04-06T03:58:53.153Z,69.50
2019-04-06T04:08:55.333Z,69.50
2019-04-06T04:18:58.104Z,69.60
2019-04-06T04:29:01.524Z,69.80
2019-04-06T04:39:05.929Z,69.80
2019-04-06T04:49:07.920Z,69.90
2019-04-06T04:59:10.184Z,70.00
2019-04-06T05:09:12.146Z,70.50
2019-04-06T05:19:16.275Z,70.40
2019-04-06T05:29:18.160Z,70.20
2019-04-06T05:39:20.140Z,70.00
2019-04-06T05:49:22.132Z,69.70
2019-04-06T05:59:24.068Z,69.30
2019-04-06T06:09:26.141Z,68.70
2019-04-06T06:19:28.124Z,68.00
2019-04-06T06:29:30.198Z,67.30
2019-04-06T06:39:32.164Z,66.50
2019-04-06T06:49:35.939Z,65.80
2019-04-06T06:59:37.962Z,65.40
2019-04-06T07:09:40.411Z,64.60
2019-04-06T07:19:42.370Z,63.90
2019-04-06T07:29:44.492Z,63.10
2019-04-06T07:39:46.609Z,62.30
2019-04-06T07:49:48.753Z,61.10
2019-04-06T07:59:50.971Z,60.40
2019-04-06T08:09:53.068Z,59.90
2019-04-06T08:19:55.167Z,59.20
2019-04-06T08:29:57.131Z,57.80
2019-04-06T08:39:59.059Z,56.70
2019-04-06T08:50:01.020Z,55.60
2019-04-06T09:00:03.971Z,54.70
2019-04-06T09:10:06.388Z,54.60
2019-04-06T09:20:08.764Z,53.60
2019-04-06T09:30:10.848Z,52.60
2019-04-06T09:40:13.099Z,51.30
2019-04-06T09:50:15.062Z,50.50
2019-04-06T10:00:17.635Z,51.10
2019-04-06T10:10:19.289Z,51.10
2019-04-06T10:20:21.333Z,48.00
2019-04-06T10:30:23.270Z,48.70
2019-04-06T10:40:25.501Z,48.20
2019-04-06T10:50:29.411Z,47.40
2019-04-06T11:00:31.507Z,43.90
2019-04-06T11:10:33.474Z,45.70
2019-04-06T11:20:35.651Z,45.30
2019-04-06T11:30:37.376Z,43.90
2019-04-06T11:40:39.783Z,39.40
2019-04-06T11:50:41.946Z,42.00
2019-04-06T12:00:43.952Z,38.10
2019-04-06T12:10:45.950Z,33.90
2019-04-06T12:20:48.345Z,32.10
2019-04-06T12:30:50.342Z,31.60
2019-04-06T12:40:52.690Z,36.00
2019-04-06T12:50:55.071Z,32.70
2019-04-06T13:00:57.119Z,35.00
2019-04-06T13:10:58.586Z,37.10
2019-04-06T13:21:01.171Z,35.20
2019-04-06T13:31:04.210Z,34.70
2019-04-06T13:41:06.663Z,36.20
2019-04-06T13:51:08.649Z,35.50
2019-04-06T14:01:16.118Z,35.30
2019-04-06T14:11:14.487Z,35.90
2019-04-06T14:21:15.925Z,37.70
2019-04-06T14:31:27.464Z,38.10
2019-04-06T14:41:21.951Z,38.90
2019-04-06T14:51:24.030Z,39.10
2019-04-06T15:01:40.409Z,39.30
2019-04-06T15:11:29.779Z,39.60
2019-04-06T15:21:31.768Z,40.70
2019-04-06T15:31:33.759Z,40.90
2019-04-06T15:41:35.711Z,39.60
2019-04-06T15:51:37.690Z,39.10
2019-04-06T16:01:39.648Z,39.10
2019-04-06T16:11:41.670Z,39.20
2019-04-06T16:21:43.717Z,39.40
2019-04-06T16:31:45.731Z,39.70
2019-04-06T16:41:48.262Z,39.70
2019-04-06T16:51:50.194Z,39.70
2019-04-06T17:01:52.257Z,40.20
2019-04-06T17:11:54.396Z,41.10
2019-04-06T17:21:56.559Z,41.80
2019-04-06T17:31:58.490Z,43.00
2019-04-06T17:42:01.109Z,44.00
2019-04-06T17:52:03.328Z,45.50
2019-04-06T18:02:05.812Z,46.90
2019-04-06T18:12:07.823Z,48.10
2019-04-06T18:22:10.030Z,50.80
2019-04-06T18:32:12.094Z,49.60
2019-04-06T18:42:14.239Z,50.50
2019-04-06T18:52:16.683Z,51.30
2019-04-06T19:02:19.035Z,52.00
2019-04-06T19:12:22.786Z,52.80
2019-04-06T19:22:25.163Z,53.40
2019-04-06T19:32:27.306Z,54.00
2019-04-06T19:42:29.681Z,54.50
2019-04-06T19:52:31.718Z,54.80
2019-04-06T20:02:33.951Z,55.40
2019-04-06T20:12:36.135Z,55.80
2019-04-06T20:22:38.231Z,56.30
2019-04-06T20:32:40.384Z,56.90
2019-04-06T20:42:42.278Z,57.50
2019-04-06T20:52:44.278Z,58.00
2019-04-06T21:02:46.248Z,58.80
2019-04-06T21:12:48.634Z,59.40
2019-04-06T21:22:50.768Z,59.60
2019-04-06T21:32:52.807Z,60.00
2019-04-06T21:42:54.847Z,60.30
2019-04-06T21:52:57.592Z,60.80
2019-04-06T22:02:59.750Z,61.40
2019-04-06T22:13:01.770Z,62.70
2019-04-06T22:23:03.868Z,63.50
2019-04-06T22:33:06.565Z,63.80
2019-04-06T22:43:08.167Z,64.30
2019-04-06T22:53:10.099Z,67.70
2019-04-06T23:03:13.123Z,65.00
2019-04-06T23:13:15.056Z,65.70
2019-04-06T23:23:17.643Z,66.20
2019-04-06T23:33:20.257Z,66.90
2019-04-06T23:43:22.286Z,67.00
2019-04-06T23:53:24.310Z,67.60
